Airfield :
LOGIN :

Register | Disclaimer

   EN    FR    IT 

 










Legend :    VFR   Marginal VFR   IFR   Intensive IFR   Very Intensive IFR
Visi :
Ceiling :
>= 8 km
>= 3000ft
5 to 8 km
1000 to 3000 ft
1500m to 5 km
500 to 1000 ft
800 to 1500m
200 to 500 ft
< 800m
< 200 ft
Symbols :   Thunderstorms  Fog  Heavy snow  Heavy precipitations  Wind > 20 kt
SIGMETs :     Misc.  Thunderstorms  Icing  Turbulence  Mountain Waves  Volcanic Ashes







- Airport Elevation : 302 ft
- IATA code : MAH


LEMH - Menorca

CURRENT METAR :
  • 190400Z AUTO 34006KT 9999 NCD 10/07 Q1020

EXPIRED METARs :
  • 190330Z AUTO 34005KT 9999 NCD 10/07 Q1020
  • 190300Z AUTO 33005KT 9999 NCD 10/08 Q1020
  • 190230Z AUTO 32004KT 9999 NCD 10/07 Q1020
  • 190200Z AUTO 34004KT 9999 FEW034/// 10/07 Q1020
  • 190130Z AUTO 33004KT 9999 NCD 10/08 Q1020

TAF TAF LEMH
Valid from the 19 at 03:00 until the 20 at 03:00 UTC


190200Z 1903/2003 34004KT 9999 FEW030 TX19/1912Z TN08/1906Z
BECMG 1910/1912 27010KT
BECMG 1918/1920 32005KT
No reported NOTAMs for that airfield.



MET'MAP, your aeronautical weather chart ! - Copyright ORBIFLY December 2007 - Disclaimer

ORBIFLY MET'MAP TEAM :

Programming & Development : Alexandra Zaïnal
Concept & Development : Baudouin d'Aumeries
Co-Development & Prog : Marc-Olivier Méhu
Technical & hardware support : Manuel Goepfert

Contact : metmap@orbifly.com




SOURCES & CREDITS :

   NOAA